createdAt,value
2022-09-30T00:00:46.984Z,99415.78
2022-09-30T00:03:34.616Z,99414.56
2022-09-30T00:06:08.531Z,99418.47
2022-09-30T00:08:36.963Z,99417.59
2022-09-30T00:11:07.486Z,99422.13
2022-09-30T00:13:38.376Z,99422.66
2022-09-30T00:16:07.834Z,99422.94
2022-09-30T00:18:37.510Z,99430.28
2022-09-30T00:21:05.536Z,99433.06
2022-09-30T00:23:33.424Z,99436.72
2022-09-30T00:26:03.032Z,99432.81
2022-09-30T00:28:30.691Z,99438.75
2022-09-30T00:30:59.598Z,99452.72
2022-09-30T00:33:27.361Z,99455.72
2022-09-30T00:35:56.355Z,99452.97
2022-09-30T00:38:24.630Z,99457.72
2022-09-30T00:40:52.290Z,99459.72
2022-09-30T00:43:38.218Z,99461.78
2022-09-30T00:46:06.536Z,99461.63
2022-09-30T00:48:39.067Z,99459.50
2022-09-30T00:51:08.678Z,99464.19
2022-09-30T00:53:44.256Z,99470.81
2022-09-30T00:56:17.295Z,99464.50
2022-09-30T00:58:46.937Z,99467.84
2022-09-30T01:01:17.896Z,99473.84
2022-09-30T01:03:48.322Z,99475.72
2022-09-30T01:06:18.134Z,99460.50
2022-09-30T01:08:46.772Z,99463.88
2022-09-30T01:11:14.566Z,99453.69
2022-09-30T01:13:44.417Z,99458.16
2022-09-30T01:16:39.562Z,99450.69
2022-09-30T01:19:46.101Z,99457.69
2022-09-30T01:22:24.407Z,99464.19
2022-09-30T01:25:26.734Z,99458.53
2022-09-30T01:28:19.411Z,99460.06
2022-09-30T01:31:03.873Z,99464.19
2022-09-30T01:33:43.098Z,99471.91
2022-09-30T01:36:28.800Z,99465.22
2022-09-30T01:39:08.254Z,99463.22
2022-09-30T01:41:42.542Z,99454.69
2022-09-30T01:44:17.532Z,99443.00
2022-09-30T01:46:55.480Z,99443.66
2022-09-30T01:49:30.814Z,99450.19
2022-09-30T01:52:04.427Z,99453.88
2022-09-30T01:54:39.343Z,99452.22
2022-09-30T01:57:11.680Z,99451.34
2022-09-30T01:59:46.468Z,99454.53
2022-09-30T02:02:20.234Z,99461.75
2022-09-30T02:04:54.424Z,99460.72
2022-09-30T02:07:26.821Z,99455.53
2022-09-30T02:09:59.816Z,99455.03
2022-09-30T02:12:32.421Z,99440.31
2022-09-30T02:15:05.940Z,99449.19
2022-09-30T02:17:39.634Z,99446.88
2022-09-30T02:20:12.066Z,99448.50
2022-09-30T02:22:43.765Z,99448.03
2022-09-30T02:25:15.597Z,99444.69
2022-09-30T02:27:48.486Z,99447.00
2022-09-30T02:30:16.208Z,99451.03
2022-09-30T02:32:49.533Z,99456.38
2022-09-30T02:35:22.464Z,99456.06
2022-09-30T02:37:55.001Z,99454.72
2022-09-30T02:40:28.505Z,99459.72
2022-09-30T02:42:56.890Z,99454.34
2022-09-30T02:45:24.772Z,99443.66
2022-09-30T02:48:09.302Z,99443.78
2022-09-30T02:50:44.706Z,99447.94
2022-09-30T02:53:23.815Z,99463.50
2022-09-30T02:56:19.579Z,99461.72
2022-09-30T02:58:48.162Z,99468.88
2022-09-30T03:01:17.733Z,99472.72
2022-09-30T03:03:50.175Z,99481.50
2022-09-30T03:06:18.171Z,99484.66
2022-09-30T03:08:46.795Z,99487.72
2022-09-30T03:11:18.132Z,99482.59
2022-09-30T03:14:33.989Z,99475.16
2022-09-30T03:17:25.588Z,99487.41
2022-09-30T03:20:13.617Z,99482.44
2022-09-30T03:22:58.699Z,99474.06
2022-09-30T03:25:35.497Z,99467.38
2022-09-30T03:28:17.380Z,99480.44
2022-09-30T03:30:51.541Z,99479.44
2022-09-30T03:33:25.179Z,99482.09
2022-09-30T03:36:00.975Z,99495.66
2022-09-30T03:38:39.852Z,99498.47
2022-09-30T03:41:13.703Z,99493.47
2022-09-30T03:43:46.851Z,99495.28
2022-09-30T03:46:23.230Z,99493.78
2022-09-30T03:48:55.181Z,99498.09
2022-09-30T03:51:24.817Z,99506.78
2022-09-30T03:53:52.563Z,99502.22
2022-09-30T03:56:25.662Z,99505.97
2022-09-30T03:58:56.222Z,99499.25
2022-09-30T04:01:24.319Z,99513.50
2022-09-30T04:03:52.632Z,99511.31
2022-09-30T04:06:22.255Z,99509.34
2022-09-30T04:08:51.477Z,99508.16
2022-09-30T04:11:18.865Z,99500.28
2022-09-30T04:13:46.729Z,99504.13
2022-09-30T04:16:14.356Z,99512.47
2022-09-30T04:18:43.902Z,99514.16
2022-09-30T04:21:13.827Z,99512.97
2022-09-30T04:23:42.267Z,99517.09
2022-09-30T04:26:13.330Z,99515.59
2022-09-30T04:31:25.971Z,99515.38
2022-09-30T04:33:53.791Z,99509.66
2022-09-30T04:36:21.199Z,99515.38
2022-09-30T04:38:48.732Z,99510.59
2022-09-30T04:41:17.799Z,99521.81
2022-09-30T04:43:46.586Z,99527.81
2022-09-30T04:46:13.954Z,99521.81
2022-09-30T04:48:44.517Z,99536.19
2022-09-30T04:51:12.137Z,99541.69
2022-09-30T04:53:39.462Z,99545.34
2022-09-30T04:56:07.623Z,99544.81
2022-09-30T04:58:37.249Z,99550.06
2022-09-30T05:01:06.924Z,99555.56
2022-09-30T05:03:35.695Z,99556.06
2022-09-30T05:06:03.802Z,99565.72
2022-09-30T05:08:31.388Z,99566.44
2022-09-30T05:11:01.129Z,99570.34
2022-09-30T05:13:31.933Z,99575.03
2022-09-30T05:16:01.843Z,99573.66
2022-09-30T05:18:29.947Z,99575.69
2022-09-30T05:20:58.199Z,99579.97
2022-09-30T05:23:27.580Z,99580.00
2022-09-30T05:25:55.102Z,99578.81
2022-09-30T05:28:22.608Z,99586.53
2022-09-30T05:30:56.750Z,99588.97
2022-09-30T05:33:26.062Z,99584.88
2022-09-30T05:35:53.742Z,99574.59
2022-09-30T05:38:21.001Z,99587.50
2022-09-30T05:40:48.419Z,99592.44
2022-09-30T05:43:16.389Z,99600.59
2022-09-30T05:45:52.274Z,99602.53
2022-09-30T05:48:19.974Z,99609.06
2022-09-30T05:50:48.889Z,99613.97
2022-09-30T05:53:16.777Z,99614.56
2022-09-30T05:55:46.790Z,99611.72
2022-09-30T05:58:14.748Z,99616.63
2022-09-30T06:00:43.136Z,99616.25
2022-09-30T06:03:11.719Z,99617.56
2022-09-30T06:05:39.037Z,99615.00
2022-09-30T06:08:08.431Z,99614.72
2022-09-30T06:10:37.184Z,99618.81
2022-09-30T06:13:05.953Z,99628.47
2022-09-30T06:15:33.313Z,99622.50
2022-09-30T06:18:01.270Z,99625.91
2022-09-30T06:20:28.659Z,99629.88
2022-09-30T06:22:58.424Z,99635.19
2022-09-30T06:25:27.850Z,99636.44
2022-09-30T06:27:55.394Z,99634.63
2022-09-30T06:30:23.208Z,99633.81
2022-09-30T06:32:51.415Z,99644.72
2022-09-30T06:35:18.820Z,99640.59
2022-09-30T06:37:46.211Z,99646.84
2022-09-30T06:40:14.257Z,99641.84
2022-09-30T06:42:43.036Z,99642.94
2022-09-30T06:45:12.322Z,99647.94
2022-09-30T06:47:57.340Z,99650.75
2022-09-30T06:50:26.901Z,99651.38
2022-09-30T06:52:57.828Z,99661.84
2022-09-30T06:55:25.294Z,99654.50
2022-09-30T06:57:54.065Z,99660.34
2022-09-30T07:00:22.549Z,99667.63
2022-09-30T07:02:49.849Z,99675.31
2022-09-30T07:05:17.847Z,99677.19
2022-09-30T07:07:45.493Z,99678.06
2022-09-30T07:10:12.776Z,99680.72
2022-09-30T07:12:40.104Z,99685.53
2022-09-30T07:15:13.616Z,99690.44
2022-09-30T07:17:41.201Z,99692.09
2022-09-30T07:20:09.049Z,99689.53
2022-09-30T07:22:36.280Z,99688.66
2022-09-30T07:25:04.911Z,99690.56
2022-09-30T07:27:34.403Z,99713.56
2022-09-30T07:30:09.734Z,99707.94
2022-09-30T07:32:40.407Z,99709.78
2022-09-30T07:35:08.190Z,99711.28
2022-09-30T07:37:35.832Z,99712.56
2022-09-30T07:40:05.208Z,99710.56
2022-09-30T07:42:33.186Z,99710.56
2022-09-30T07:45:00.389Z,99715.84
2022-09-30T07:47:28.325Z,99718.06
2022-09-30T07:49:57.045Z,99718.06
2022-09-30T07:52:24.372Z,99724.81
2022-09-30T07:54:52.110Z,99722.59
2022-09-30T07:57:19.353Z,99725.94
2022-09-30T07:59:46.613Z,99713.88
2022-09-30T08:02:16.146Z,99725.47
2022-09-30T08:04:44.914Z,99724.34
2022-09-30T08:07:15.162Z,99728.34
2022-09-30T08:09:42.884Z,99731.56
2022-09-30T08:12:10.439Z,99740.84
2022-09-30T08:14:37.854Z,99738.00
2022-09-30T08:17:06.049Z,99744.75
2022-09-30T08:19:33.619Z,99747.97
2022-09-30T08:24:35.138Z,99743.91
2022-09-30T08:27:02.476Z,99740.44
2022-09-30T08:32:19.271Z,99747.69
2022-09-30T08:34:46.924Z,99752.03
2022-09-30T08:37:14.328Z,99751.56
2022-09-30T08:39:43.976Z,99763.03
2022-09-30T08:42:39.523Z,99754.69
2022-09-30T08:45:19.994Z,99759.03
2022-09-30T08:47:53.461Z,99755.63
2022-09-30T08:50:29.834Z,99769.09
2022-09-30T08:53:01.727Z,99763.94
2022-09-30T08:55:38.924Z,99760.34
2022-09-30T08:58:11.256Z,99764.19
2022-09-30T09:00:42.837Z,99759.31
2022-09-30T09:03:13.402Z,99768.44
2022-09-30T09:05:52.749Z,99767.53
2022-09-30T09:08:29.822Z,99772.44
2022-09-30T09:11:03.782Z,99766.31
2022-09-30T09:13:44.834Z,99762.00
2022-09-30T09:16:21.597Z,99764.34
2022-09-30T09:18:59.173Z,99772.13
2022-09-30T09:21:38.372Z,99768.31
2022-09-30T09:24:14.975Z,99766.16
2022-09-30T09:26:44.836Z,99769.94
2022-09-30T09:29:34.843Z,99778.59
2022-09-30T09:32:03.001Z,99779.66
2022-09-30T09:34:31.378Z,99772.19
2022-09-30T09:37:10.088Z,99774.34
2022-09-30T09:40:03.833Z,99771.81
2022-09-30T09:42:59.480Z,99774.19
2022-09-30T09:45:32.211Z,99780.63
2022-09-30T09:47:59.480Z,99783.41
2022-09-30T09:50:36.405Z,99788.72
2022-09-30T09:53:20.226Z,99789.84
2022-09-30T09:55:49.314Z,99783.94
2022-09-30T09:58:18.405Z,99790.22
2022-09-30T10:00:46.454Z,99793.00
2022-09-30T10:03:16.812Z,99792.75
2022-09-30T10:05:58.214Z,99796.25
2022-09-30T10:08:26.106Z,99793.78
2022-09-30T10:10:55.815Z,99789.72
2022-09-30T10:13:26.406Z,99788.50
2022-09-30T10:16:14.222Z,99786.75
2022-09-30T10:18:45.834Z,99794.44
2022-09-30T10:21:22.316Z,99789.81
2022-09-30T10:23:50.601Z,99792.84
2022-09-30T10:26:20.060Z,99799.56
2022-09-30T10:28:51.023Z,99800.53
2022-09-30T10:31:25.397Z,99805.72
2022-09-30T10:34:01.190Z,99804.72
2022-09-30T10:36:32.776Z,99804.50
2022-09-30T10:39:05.719Z,99808.88
2022-09-30T10:41:37.871Z,99809.50
2022-09-30T10:44:14.432Z,99803.44
2022-09-30T10:46:44.840Z,99804.66
2022-09-30T10:49:25.047Z,99813.19
2022-09-30T10:51:53.283Z,99804.00
2022-09-30T10:54:49.107Z,99807.16
2022-09-30T10:57:22.270Z,99796.09
2022-09-30T10:59:55.015Z,99804.38
2022-09-30T11:02:30.524Z,99794.25
2022-09-30T11:05:05.459Z,99797.09
2022-09-30T11:07:41.975Z,99794.00
2022-09-30T11:10:25.853Z,99798.16
2022-09-30T11:13:01.766Z,99793.44
2022-09-30T11:15:39.504Z,99791.94
2022-09-30T11:18:16.843Z,99800.75
2022-09-30T11:20:48.651Z,99803.66
2022-09-30T11:23:21.239Z,99791.16
2022-09-30T11:25:53.607Z,99800.50
2022-09-30T11:28:37.838Z,99804.06
2022-09-30T11:31:19.543Z,99802.81
2022-09-30T11:34:02.649Z,99803.44
2022-09-30T11:36:42.261Z,99802.91
2022-09-30T11:39:41.687Z,99798.00
2022-09-30T11:42:17.187Z,99806.81
2022-09-30T11:44:46.760Z,99811.53
2022-09-30T11:47:42.034Z,99810.53
2022-09-30T11:50:40.046Z,99806.78
2022-09-30T11:53:20.304Z,99803.09
2022-09-30T11:56:02.166Z,99801.78
2022-09-30T11:58:41.645Z,99797.38
2022-09-30T12:01:17.022Z,99795.31
2022-09-30T12:03:54.819Z,99794.94
2022-09-30T12:06:33.507Z,99797.13
2022-09-30T12:09:08.231Z,99805.50
2022-09-30T12:11:43.624Z,99807.88
2022-09-30T12:14:17.282Z,99804.19
2022-09-30T12:16:47.832Z,99810.53
2022-09-30T12:19:25.216Z,99815.00
2022-09-30T12:21:59.033Z,99816.25
2022-09-30T12:24:32.289Z,99817.25
2022-09-30T12:27:00.398Z,99821.75
2022-09-30T12:29:32.562Z,99808.69
2022-09-30T12:32:27.127Z,99817.44
2022-09-30T12:35:08.111Z,99815.56
2022-09-30T12:37:48.370Z,99821.75
2022-09-30T12:40:33.788Z,99812.09
2022-09-30T12:43:21.071Z,99814.59
2022-09-30T12:46:13.760Z,99817.66
2022-09-30T12:48:45.939Z,99814.81
2022-09-30T12:51:26.108Z,99820.34
2022-09-30T12:53:59.058Z,99806.31
2022-09-30T12:56:29.013Z,99812.09
2022-09-30T12:58:57.728Z,99808.56
2022-09-30T13:01:28.124Z,99812.00
2022-09-30T13:04:18.217Z,99806.47
2022-09-30T13:07:12.829Z,99812.69
2022-09-30T13:09:59.425Z,99813.03
2022-09-30T13:12:29.539Z,99804.03
2022-09-30T13:15:23.686Z,99799.97
2022-09-30T13:17:51.323Z,99798.53
2022-09-30T13:20:50.743Z,99799.31
2022-09-30T13:23:37.027Z,99798.97
2022-09-30T13:26:25.771Z,99795.75
2022-09-30T13:28:54.864Z,99795.16
2022-09-30T13:31:23.782Z,99794.63
2022-09-30T13:34:10.145Z,99795.28
2022-09-30T13:36:42.273Z,99796.44
2022-09-30T13:39:23.817Z,99797.16
2022-09-30T13:42:06.892Z,99801.56
2022-09-30T13:44:42.178Z,99806.66
2022-09-30T13:47:19.434Z,99802.53
2022-09-30T13:49:53.128Z,99803.84
2022-09-30T13:52:25.002Z,99805.84
2022-09-30T13:54:56.558Z,99798.47
2022-09-30T13:57:28.663Z,99797.50
2022-09-30T14:00:08.099Z,99802.47
2022-09-30T14:02:53.416Z,99805.78
2022-09-30T14:05:34.565Z,99798.06
2022-09-30T14:08:30.820Z,99794.56
2022-09-30T14:11:16.079Z,99789.19
2022-09-30T14:13:55.926Z,99793.34
2022-09-30T14:16:48.966Z,99805.94
2022-09-30T14:19:34.345Z,99798.72
2022-09-30T14:22:04.709Z,99797.56
2022-09-30T14:24:37.878Z,99800.56
2022-09-30T14:27:40.035Z,99809.44
2022-09-30T14:30:13.791Z,99811.41
2022-09-30T14:32:47.597Z,99811.00
2022-09-30T14:35:20.004Z,99817.13
2022-09-30T14:37:50.596Z,99818.44
2022-09-30T14:40:27.319Z,99829.13
2022-09-30T14:42:59.982Z,99824.47
2022-09-30T14:45:31.673Z,99825.81
2022-09-30T14:48:05.343Z,99827.19
2022-09-30T14:50:37.737Z,99819.78
2022-09-30T14:53:05.151Z,99822.22
2022-09-30T14:55:35.743Z,99828.50
2022-09-30T14:58:23.937Z,99833.53
2022-09-30T15:01:02.100Z,99829.78
2022-09-30T15:03:30.878Z,99817.66
2022-09-30T15:05:58.553Z,99819.31
2022-09-30T15:08:26.723Z,99817.00
2022-09-30T15:13:42.733Z,99815.03
2022-09-30T15:16:23.030Z,99821.03
2022-09-30T15:18:50.914Z,99823.59
2022-09-30T15:21:18.296Z,99823.25
2022-09-30T15:23:50.169Z,99829.91
2022-09-30T15:26:18.407Z,99837.16
2022-09-30T15:28:47.806Z,99836.72
2022-09-30T15:31:23.197Z,99835.72
2022-09-30T15:34:01.918Z,99837.56
2022-09-30T15:36:29.917Z,99825.91
2022-09-30T15:38:57.923Z,99826.34
2022-09-30T15:41:25.599Z,99832.31
2022-09-30T15:43:54.568Z,99833.47
2022-09-30T15:46:28.840Z,99836.88
2022-09-30T15:48:58.538Z,99828.38
2022-09-30T15:51:29.529Z,99835.13
2022-09-30T15:53:58.148Z,99828.94
2022-09-30T15:56:30.388Z,99829.69
2022-09-30T15:59:01.386Z,99830.78
2022-09-30T16:01:38.034Z,99828.53
2022-09-30T16:04:10.077Z,99827.88
2022-09-30T16:06:44.721Z,99832.06
2022-09-30T16:09:28.154Z,99839.25
2022-09-30T16:12:02.128Z,99851.75
2022-09-30T16:14:33.690Z,99849.09
2022-09-30T16:17:03.492Z,99861.06
2022-09-30T16:19:32.445Z,99869.25
2022-09-30T16:22:00.184Z,99870.75
2022-09-30T16:24:45.006Z,99871.34
2022-09-30T16:27:27.571Z,99868.22
2022-09-30T16:29:56.571Z,99867.41
2022-09-30T16:32:25.820Z,99870.13
2022-09-30T16:34:53.228Z,99869.47
2022-09-30T16:37:20.890Z,99874.66
2022-09-30T16:39:49.206Z,99879.25
2022-09-30T16:42:17.599Z,99879.88
2022-09-30T16:44:45.376Z,99884.44
2022-09-30T16:47:16.156Z,99881.72
2022-09-30T16:49:45.497Z,99876.47
2022-09-30T16:52:13.430Z,99880.91
2022-09-30T16:54:41.898Z,99884.19
2022-09-30T16:57:13.261Z,99881.81
2022-09-30T16:59:40.537Z,99882.56
2022-09-30T17:02:15.031Z,99885.78
2022-09-30T17:04:42.904Z,99900.97
2022-09-30T17:07:12.977Z,99901.16
2022-09-30T17:09:41.617Z,99893.56
2022-09-30T17:12:09.217Z,99889.47
2022-09-30T17:14:36.754Z,99887.09
2022-09-30T17:17:04.182Z,99897.38
2022-09-30T17:19:33.385Z,99886.97
2022-09-30T17:22:01.493Z,99890.91
2022-09-30T17:24:28.984Z,99894.09
2022-09-30T17:26:56.408Z,99911.25
2022-09-30T17:29:32.734Z,99918.47
2022-09-30T17:32:01.259Z,99919.13
2022-09-30T17:34:47.093Z,99915.06
2022-09-30T17:37:15.845Z,99910.63
2022-09-30T17:39:43.495Z,99911.84
2022-09-30T17:42:13.419Z,99906.91
2022-09-30T17:44:40.587Z,99905.88
2022-09-30T17:47:08.275Z,99911.44
2022-09-30T17:49:36.124Z,99921.66
2022-09-30T17:52:04.193Z,99921.16
2022-09-30T17:54:33.677Z,99927.97
2022-09-30T17:57:01.167Z,99933.47
2022-09-30T17:59:28.773Z,99940.59
2022-09-30T18:01:56.620Z,99936.59
2022-09-30T18:04:24.550Z,99939.19
2022-09-30T18:06:52.640Z,99938.94
2022-09-30T18:09:20.514Z,99950.53
2022-09-30T18:11:49.907Z,99944.09
2022-09-30T18:14:17.826Z,99944.75
2022-09-30T18:16:45.707Z,99943.06
2022-09-30T18:19:16.272Z,99934.06
2022-09-30T18:21:43.800Z,99929.19
2022-09-30T18:24:14.007Z,99936.16
2022-09-30T18:26:41.682Z,99927.44
2022-09-30T18:29:10.530Z,99935.06
2022-09-30T18:31:39.064Z,99930.50
2022-09-30T18:34:09.029Z,99935.88
2022-09-30T18:36:36.813Z,99934.06
2022-09-30T18:39:04.882Z,99929.66
2022-09-30T18:41:36.034Z,99927.81
2022-09-30T18:44:04.756Z,99935.50
2022-09-30T18:46:33.700Z,99935.03
2022-09-30T18:49:00.905Z,99942.91
2022-09-30T18:51:28.635Z,99948.25
2022-09-30T18:53:57.769Z,99953.09
2022-09-30T18:56:26.386Z,99955.91
2022-09-30T18:58:54.117Z,99957.44
2022-09-30T19:01:21.810Z,99953.66
2022-09-30T19:03:50.532Z,99958.84
2022-09-30T19:06:18.121Z,99958.56
2022-09-30T19:08:45.694Z,99959.38
2022-09-30T19:11:13.557Z,99961.41
2022-09-30T19:13:41.844Z,99957.19
2022-09-30T19:16:10.154Z,99949.78
2022-09-30T19:18:38.344Z,99949.03
2022-09-30T19:21:09.082Z,99946.63
2022-09-30T19:23:36.643Z,99945.00
2022-09-30T19:26:04.692Z,99928.69
2022-09-30T19:28:33.087Z,99931.38
2022-09-30T19:31:06.887Z,99931.56
2022-09-30T19:33:37.345Z,99918.44
2022-09-30T19:36:16.647Z,99920.06
2022-09-30T19:38:46.052Z,99925.25
2022-09-30T19:41:15.381Z,99921.47
2022-09-30T19:43:43.256Z,99934.50
2022-09-30T19:46:12.398Z,99928.84
2022-09-30T19:48:39.685Z,99926.00
2022-09-30T19:51:08.817Z,99920.53
2022-09-30T19:53:41.870Z,99923.44
2022-09-30T19:56:12.451Z,99919.09
2022-09-30T19:58:41.537Z,99927.50
2022-09-30T20:01:10.087Z,99928.34
2022-09-30T20:03:37.748Z,99929.00
2022-09-30T20:06:07.339Z,99932.50
2022-09-30T20:08:36.192Z,99939.81
2022-09-30T20:11:08.014Z,99934.75
2022-09-30T20:13:36.659Z,99930.75
2022-09-30T20:16:05.771Z,99933.53
2022-09-30T20:18:34.161Z,99925.16
2022-09-30T20:21:02.025Z,99916.94
2022-09-30T20:23:29.310Z,99914.47
2022-09-30T20:25:56.588Z,99920.19
2022-09-30T20:28:25.893Z,99919.50
2022-09-30T20:30:53.250Z,99925.47
2022-09-30T20:33:21.452Z,99918.63
2022-09-30T20:35:49.074Z,99916.59
2022-09-30T20:38:18.299Z,99914.13
2022-09-30T20:40:45.900Z,99914.00
2022-09-30T20:43:13.820Z,99914.69
2022-09-30T20:45:42.569Z,99913.31
2022-09-30T20:48:09.906Z,99915.16
2022-09-30T20:50:40.252Z,99919.31
2022-09-30T20:53:09.908Z,99914.41
2022-09-30T20:55:38.984Z,99914.00
2022-09-30T20:58:08.190Z,99912.56
2022-09-30T21:00:37.607Z,99915.41
2022-09-30T21:03:08.820Z,99910.84
2022-09-30T21:05:37.321Z,99913.41
2022-09-30T21:08:05.289Z,99910.03
2022-09-30T21:10:34.951Z,99909.97
2022-09-30T21:13:07.628Z,99908.63
2022-09-30T21:15:34.873Z,99907.44
2022-09-30T21:18:02.302Z,99900.22
2022-09-30T21:20:32.376Z,99902.13
2022-09-30T21:22:59.711Z,99905.75
2022-09-30T21:25:27.098Z,99907.31
2022-09-30T21:27:55.059Z,99904.75
2022-09-30T21:30:22.472Z,99906.06
2022-09-30T21:32:49.857Z,99909.47
2022-09-30T21:35:17.533Z,99912.66
2022-09-30T21:37:48.709Z,99909.97
2022-09-30T21:40:16.106Z,99906.06
2022-09-30T21:42:44.228Z,99906.25
2022-09-30T21:45:11.796Z,99908.56
2022-09-30T21:47:39.138Z,99910.00
2022-09-30T21:50:07.891Z,99911.56
2022-09-30T21:52:35.162Z,99905.81
2022-09-30T21:55:04.329Z,99901.28
2022-09-30T21:57:32.111Z,99905.69
2022-09-30T21:59:59.348Z,99905.34
2022-09-30T22:02:27.251Z,99904.44
2022-09-30T22:04:55.272Z,99902.81
2022-09-30T22:07:22.547Z,99904.78
2022-09-30T22:09:50.207Z,99907.63
2022-09-30T22:12:19.348Z,99907.44
2022-09-30T22:14:46.745Z,99907.53
2022-09-30T22:17:14.029Z,99898.75
2022-09-30T22:19:41.694Z,99902.25
2022-09-30T22:22:10.050Z,99895.34
2022-09-30T22:24:37.682Z,99902.66
2022-09-30T22:27:05.526Z,99900.63
2022-09-30T22:29:34.776Z,99890.16
2022-09-30T22:32:02.341Z,99894.53
2022-09-30T22:34:30.522Z,99898.09
2022-09-30T22:36:57.910Z,99895.72
2022-09-30T22:39:25.726Z,99892.00
2022-09-30T22:41:55.323Z,99892.97
2022-09-30T22:44:24.201Z,99893.88
2022-09-30T22:46:53.501Z,99896.50
2022-09-30T22:49:21.416Z,99891.78
2022-09-30T22:51:50.555Z,99901.53
2022-09-30T22:54:18.322Z,99905.34
2022-09-30T22:56:46.243Z,99907.09
2022-09-30T22:59:13.512Z,99900.78
2022-09-30T23:01:40.872Z,99897.38
2022-09-30T23:04:09.894Z,99901.72
2022-09-30T23:06:37.269Z,99905.50
2022-09-30T23:09:05.608Z,99901.25
2022-09-30T23:11:34.064Z,99894.56
2022-09-30T23:14:02.717Z,99897.69
2022-09-30T23:16:30.183Z,99900.56
2022-09-30T23:18:58.416Z,99900.38
2022-09-30T23:21:27.288Z,99898.41
2022-09-30T23:23:54.611Z,99900.31
2022-09-30T23:26:23.358Z,99902.09
2022-09-30T23:28:50.914Z,99898.94
2022-09-30T23:31:18.812Z,99900.44
2022-09-30T23:33:47.763Z,99904.25
2022-09-30T23:36:17.317Z,99900.72
2022-09-30T23:38:46.894Z,99908.66
2022-09-30T23:41:14.798Z,99913.97
2022-09-30T23:43:42.027Z,99917.88
2022-09-30T23:46:09.342Z,99914.22
2022-09-30T23:48:37.128Z,99905.66
2022-09-30T23:51:05.858Z,99910.03
2022-09-30T23:53:34.967Z,99910.56
2022-09-30T23:56:06.959Z,99916.78
2022-09-30T23:58:35.101Z,99911.91
